createdAt,value
2019-02-09T00:00:39.662Z,3.07
2019-02-09T00:01:39.594Z,3.17
2019-02-09T00:02:39.534Z,3.15
2019-02-09T00:03:39.468Z,3.20
2019-02-09T00:04:39.388Z,3.20
2019-02-09T00:05:39.322Z,3.20
2019-02-09T00:06:39.252Z,3.23
2019-02-09T00:07:39.179Z,3.20
2019-02-09T00:08:39.122Z,3.17
2019-02-09T00:09:39.050Z,3.20
2019-02-09T00:10:38.982Z,3.12
2019-02-09T00:11:38.916Z,3.17
2019-02-09T00:12:38.863Z,3.23
2019-02-09T00:13:38.788Z,3.20
2019-02-09T00:14:38.707Z,3.18
2019-02-09T00:15:38.640Z,3.15
2019-02-09T00:16:38.573Z,3.18
2019-02-09T00:17:38.512Z,3.14
2019-02-09T00:18:38.432Z,3.08
2019-02-09T00:19:38.370Z,3.09
2019-02-09T00:20:38.314Z,3.09
2019-02-09T00:21:38.233Z,3.04
2019-02-09T00:22:38.164Z,3.11
2019-02-09T00:23:38.100Z,3.07
2019-02-09T00:24:38.031Z,3.02
2019-02-09T00:25:37.959Z,3.04
2019-02-09T00:26:37.892Z,3.04
2019-02-09T00:27:37.827Z,3.07
2019-02-09T00:28:37.761Z,2.96
2019-02-09T00:29:45.064Z,3.08
2019-02-09T00:30:37.618Z,3.09
2019-02-09T00:31:37.545Z,3.09
2019-02-09T00:32:37.489Z,3.00
2019-02-09T00:33:37.411Z,2.93
2019-02-09T00:34:37.346Z,2.97
2019-02-09T00:35:37.278Z,2.94
2019-02-09T00:36:37.210Z,2.96
2019-02-09T00:37:37.138Z,3.00
2019-02-09T00:38:37.073Z,2.94
2019-02-09T00:39:37.913Z,2.91
2019-02-09T00:40:36.936Z,2.94
2019-02-09T00:41:36.875Z,2.93
2019-02-09T00:42:36.809Z,2.87
2019-02-09T00:43:36.742Z,2.75
2019-02-09T00:44:36.664Z,2.66
2019-02-09T00:45:36.595Z,2.63
2019-02-09T00:46:36.531Z,2.65
2019-02-09T00:47:36.468Z,2.65
2019-02-09T00:48:36.390Z,2.61
2019-02-09T00:49:36.322Z,2.69
2019-02-09T00:50:36.257Z,2.69
2019-02-09T00:51:36.188Z,2.69
2019-02-09T00:52:36.115Z,2.63
2019-02-09T00:53:36.048Z,2.48
2019-02-09T00:54:35.980Z,2.55
2019-02-09T00:55:35.914Z,2.54
2019-02-09T00:56:35.852Z,2.45
2019-02-09T00:57:35.788Z,2.35
2019-02-09T00:58:35.717Z,2.45
2019-02-09T00:59:35.641Z,2.40
2019-02-09T01:00:35.574Z,2.45
2019-02-09T01:01:35.506Z,2.45
2019-02-09T01:02:35.442Z,2.48
2019-02-09T01:03:35.366Z,2.45
2019-02-09T01:04:35.308Z,2.39
2019-02-09T01:05:35.233Z,2.53
2019-02-09T01:06:35.167Z,2.55
2019-02-09T01:07:35.093Z,2.57
2019-02-09T01:08:35.027Z,2.47
2019-02-09T01:09:34.960Z,2.54
2019-02-09T01:10:34.890Z,2.51
2019-02-09T01:11:34.830Z,2.50
2019-02-09T01:12:34.755Z,2.58
2019-02-09T01:13:34.688Z,2.60
2019-02-09T01:14:34.621Z,2.66
2019-02-09T01:15:34.550Z,2.66
2019-02-09T01:16:34.483Z,2.68
2019-02-09T01:17:34.414Z,2.69
2019-02-09T01:18:34.342Z,2.73
2019-02-09T01:19:34.275Z,2.79
2019-02-09T01:20:34.208Z,2.79
2019-02-09T01:21:34.148Z,2.81
2019-02-09T01:22:34.068Z,2.79
2019-02-09T01:23:34.011Z,2.90
2019-02-09T01:24:33.937Z,2.86
2019-02-09T01:25:33.869Z,2.78
2019-02-09T01:26:33.795Z,2.78
2019-02-09T01:27:33.729Z,2.76
2019-02-09T01:28:33.670Z,2.76
2019-02-09T01:29:33.593Z,2.76
2019-02-09T01:30:33.527Z,2.72
2019-02-09T01:31:33.453Z,2.61
2019-02-09T01:32:33.396Z,2.61
2019-02-09T01:33:33.319Z,2.66
2019-02-09T01:34:33.253Z,2.65
2019-02-09T01:35:33.234Z,2.58
2019-02-09T01:36:33.123Z,2.54
2019-02-09T01:37:33.044Z,2.48
2019-02-09T01:38:32.978Z,2.51
2019-02-09T01:39:32.913Z,2.51
2019-02-09T01:40:32.846Z,2.42
2019-02-09T01:41:32.770Z,2.58
2019-02-09T01:42:32.706Z,2.60
2019-02-09T01:43:32.637Z,2.60
2019-02-09T01:44:32.570Z,2.53
2019-02-09T01:45:32.506Z,2.53
2019-02-09T01:46:32.442Z,2.58
2019-02-09T01:47:32.376Z,2.55
2019-02-09T01:48:32.296Z,2.48
2019-02-09T01:49:32.228Z,2.48
2019-02-09T01:50:32.158Z,2.54
2019-02-09T01:51:32.091Z,2.61
2019-02-09T01:52:32.025Z,2.40
2019-02-09T01:53:31.952Z,2.48
2019-02-09T01:54:31.884Z,2.45
2019-02-09T01:55:31.819Z,2.42
2019-02-09T01:56:31.750Z,2.45
2019-02-09T01:57:31.681Z,2.45
2019-02-09T01:58:31.613Z,2.51
2019-02-09T01:59:31.540Z,2.43
2019-02-09T02:00:31.496Z,2.45
2019-02-09T02:01:31.407Z,2.42
2019-02-09T02:02:31.341Z,2.47
2019-02-09T02:03:31.314Z,2.45
2019-02-09T02:04:31.203Z,2.50
2019-02-09T02:05:31.138Z,2.47
2019-02-09T02:06:31.080Z,2.42
2019-02-09T02:07:30.997Z,2.43
2019-02-09T02:08:30.929Z,2.42
2019-02-09T02:09:30.862Z,2.40
2019-02-09T02:10:30.799Z,2.33
2019-02-09T02:11:30.719Z,2.36
2019-02-09T02:12:30.657Z,2.45
2019-02-09T02:13:30.587Z,2.39
2019-02-09T02:14:30.543Z,2.40
2019-02-09T02:15:30.445Z,2.39
2019-02-09T02:16:30.381Z,2.36
2019-02-09T02:17:30.314Z,2.30
2019-02-09T02:18:30.244Z,2.32
2019-02-09T02:19:30.178Z,2.35
2019-02-09T02:20:30.114Z,2.29
2019-02-09T02:21:30.062Z,2.32
2019-02-09T02:22:29.971Z,2.33
2019-02-09T02:23:29.902Z,2.35
2019-02-09T02:24:29.835Z,2.32
2019-02-09T02:25:29.783Z,2.40
2019-02-09T02:26:29.696Z,2.37
2019-02-09T02:27:29.628Z,2.39
2019-02-09T02:28:29.562Z,2.42
2019-02-09T02:29:29.493Z,2.47
2019-02-09T02:30:29.439Z,2.43
2019-02-09T02:31:29.381Z,2.45
2019-02-09T02:32:29.287Z,2.50
2019-02-09T02:33:29.219Z,2.48
2019-02-09T02:34:29.153Z,2.65
2019-02-09T02:35:29.083Z,2.58
2019-02-09T02:36:29.024Z,2.58
2019-02-09T02:37:28.946Z,2.58
2019-02-09T02:38:28.893Z,2.63
2019-02-09T02:39:28.812Z,2.63
2019-02-09T02:40:28.744Z,2.69
2019-02-09T02:41:28.669Z,2.73
2019-02-09T02:42:28.602Z,2.75
2019-02-09T02:43:28.544Z,2.72
2019-02-09T02:44:28.466Z,2.72
2019-02-09T02:45:28.396Z,2.73
2019-02-09T02:46:28.327Z,2.72
2019-02-09T02:47:28.262Z,2.65
2019-02-09T02:48:28.203Z,2.75
2019-02-09T02:49:28.123Z,2.68
2019-02-09T02:50:28.056Z,2.69
2019-02-09T02:51:27.990Z,2.71
2019-02-09T02:52:27.924Z,2.79
2019-02-09T02:53:27.856Z,2.71
2019-02-09T02:54:27.787Z,2.73
2019-02-09T02:55:27.724Z,2.72
2019-02-09T02:56:27.648Z,2.71
2019-02-09T02:57:27.580Z,2.68
2019-02-09T02:58:27.513Z,2.71
2019-02-09T02:59:27.457Z,2.65
2019-02-09T03:00:32.058Z,2.76
2019-02-09T03:01:27.307Z,2.73
2019-02-09T03:02:27.244Z,2.69
2019-02-09T03:03:27.179Z,2.65
2019-02-09T03:04:27.099Z,2.57
2019-02-09T03:05:27.034Z,2.60
2019-02-09T03:06:26.965Z,2.66
2019-02-09T03:07:26.895Z,2.65
2019-02-09T03:08:26.841Z,2.63
2019-02-09T03:09:26.763Z,2.68
2019-02-09T03:10:26.698Z,2.61
2019-02-09T03:11:26.623Z,2.57
2019-02-09T03:12:26.559Z,2.61
2019-02-09T03:13:26.496Z,2.71
2019-02-09T03:14:26.421Z,2.72
2019-02-09T03:15:26.355Z,2.78
2019-02-09T03:16:26.283Z,2.75
2019-02-09T03:17:26.216Z,2.87
2019-02-09T03:18:26.148Z,2.82
2019-02-09T03:19:26.074Z,2.93
2019-02-09T03:20:26.017Z,2.90
2019-02-09T03:21:25.945Z,2.90
2019-02-09T03:22:25.873Z,2.96
2019-02-09T03:23:25.805Z,2.99
2019-02-09T03:24:25.737Z,2.99
2019-02-09T03:25:25.670Z,3.08
2019-02-09T03:26:25.602Z,3.04
2019-02-09T03:27:25.537Z,3.15
2019-02-09T03:28:25.470Z,3.25
2019-02-09T03:29:25.409Z,3.32
2019-02-09T03:30:25.328Z,3.36
2019-02-09T03:31:25.260Z,3.29
2019-02-09T03:32:25.283Z,3.42
2019-02-09T03:33:25.128Z,3.41
2019-02-09T03:34:25.052Z,3.44
2019-02-09T03:35:24.988Z,3.54
2019-02-09T03:36:24.918Z,3.45
2019-02-09T03:37:24.857Z,3.46
2019-02-09T03:38:24.782Z,3.49
2019-02-09T03:39:24.717Z,3.44
2019-02-09T03:40:24.668Z,3.44
2019-02-09T03:41:24.583Z,3.41
2019-02-09T03:42:24.517Z,3.41
2019-02-09T03:43:24.442Z,3.44
2019-02-09T03:44:24.398Z,3.54
2019-02-09T03:45:24.307Z,3.59
2019-02-09T03:46:24.245Z,3.56
2019-02-09T03:47:24.172Z,3.51
2019-02-09T03:48:24.119Z,3.48
2019-02-09T03:49:24.030Z,3.46
2019-02-09T03:50:23.968Z,3.48
2019-02-09T03:51:23.898Z,3.45
2019-02-09T03:52:23.831Z,3.54
2019-02-09T03:53:23.778Z,3.45
2019-02-09T03:54:23.702Z,3.45
2019-02-09T03:55:23.643Z,3.44
2019-02-09T03:56:23.560Z,3.46
2019-02-09T03:57:23.496Z,3.44
2019-02-09T03:58:23.424Z,3.45
2019-02-09T03:59:23.358Z,3.44
2019-02-09T04:00:23.286Z,3.45
2019-02-09T04:01:23.221Z,3.41
2019-02-09T04:02:23.149Z,3.48
2019-02-09T04:03:23.139Z,3.45
2019-02-09T04:04:23.014Z,3.54
2019-02-09T04:05:22.952Z,3.56
2019-02-09T04:06:22.885Z,3.45
2019-02-09T04:07:22.814Z,3.51
2019-02-09T04:08:22.746Z,3.46
2019-02-09T04:09:22.680Z,3.48
2019-02-09T04:10:22.618Z,3.44
2019-02-09T04:11:22.541Z,3.36
2019-02-09T04:12:22.471Z,3.42
2019-02-09T04:13:22.408Z,3.42
2019-02-09T04:14:22.340Z,3.41
2019-02-09T04:15:22.272Z,3.49
2019-02-09T04:16:22.205Z,3.45
2019-02-09T04:17:22.149Z,3.60
2019-02-09T04:18:22.070Z,3.66
2019-02-09T04:19:22.023Z,3.69
2019-02-09T04:20:21.939Z,3.81
2019-02-09T04:21:21.871Z,3.91
2019-02-09T04:22:21.796Z,3.91
2019-02-09T04:23:21.740Z,3.94
2019-02-09T04:24:21.660Z,4.00
2019-02-09T04:25:21.597Z,4.09
2019-02-09T04:26:21.523Z,4.10
2019-02-09T04:27:21.458Z,4.24
2019-02-09T04:28:21.391Z,4.18
2019-02-09T04:29:21.332Z,4.24
2019-02-09T04:30:21.263Z,4.36
2019-02-09T04:31:21.198Z,4.39
2019-02-09T04:32:21.131Z,4.46
2019-02-09T04:33:21.054Z,4.53
2019-02-09T04:34:20.984Z,4.49
2019-02-09T04:35:20.919Z,4.57
2019-02-09T04:36:20.862Z,4.64
2019-02-09T04:37:20.785Z,4.72
2019-02-09T04:38:20.727Z,4.67
2019-02-09T04:39:21.884Z,4.61
2019-02-09T04:40:20.586Z,4.60
2019-02-09T04:41:20.508Z,4.64
2019-02-09T04:42:20.450Z,4.60
2019-02-09T04:43:20.379Z,4.63
2019-02-09T04:44:20.309Z,4.57
2019-02-09T04:45:20.241Z,4.67
2019-02-09T04:46:20.174Z,4.78
2019-02-09T04:47:20.110Z,4.86
2019-02-09T04:48:20.037Z,4.94
2019-02-09T04:49:19.971Z,4.96
2019-02-09T04:50:19.905Z,4.94
2019-02-09T04:51:19.837Z,4.97
2019-02-09T04:52:19.772Z,4.97
2019-02-09T04:53:19.700Z,4.97
2019-02-09T04:54:19.640Z,4.96
2019-02-09T04:55:19.568Z,5.09
2019-02-09T04:56:19.499Z,5.21
2019-02-09T04:57:19.431Z,5.21
2019-02-09T04:58:19.365Z,5.33
2019-02-09T04:59:19.293Z,5.41
2019-02-09T05:00:19.241Z,5.54
2019-02-09T05:01:19.162Z,5.72
2019-02-09T05:02:19.095Z,5.82
2019-02-09T05:03:19.038Z,5.91
2019-02-09T05:04:18.960Z,5.95
2019-02-09T05:05:18.892Z,6.02
2019-02-09T05:06:18.827Z,6.06
2019-02-09T05:07:18.762Z,6.11
2019-02-09T05:08:18.692Z,6.12
2019-02-09T05:09:18.629Z,6.19
2019-02-09T05:10:18.552Z,6.21
2019-02-09T05:11:18.501Z,6.25
2019-02-09T05:12:18.425Z,6.18
2019-02-09T05:13:18.357Z,6.13
2019-02-09T05:14:18.293Z,6.25
2019-02-09T05:15:18.226Z,6.31
2019-02-09T05:16:18.175Z,6.28
2019-02-09T05:17:18.088Z,6.28
2019-02-09T05:18:18.024Z,6.28
2019-02-09T05:19:17.955Z,6.35
2019-02-09T05:20:17.891Z,6.31
2019-02-09T05:21:17.828Z,6.30
2019-02-09T05:22:17.767Z,6.38
2019-02-09T05:23:17.697Z,6.34
2019-02-09T05:24:17.619Z,6.30
2019-02-09T05:25:17.556Z,6.40
2019-02-09T05:26:17.489Z,6.45
2019-02-09T05:27:17.427Z,6.37
2019-02-09T05:28:17.358Z,6.32
2019-02-09T05:29:17.308Z,6.32
2019-02-09T05:30:17.223Z,6.40
2019-02-09T05:31:22.828Z,6.40
2019-02-09T05:32:17.104Z,6.45
2019-02-09T05:33:17.023Z,6.45
2019-02-09T05:34:16.960Z,6.42
2019-02-09T05:35:16.888Z,6.37
2019-02-09T05:36:16.826Z,6.38
2019-02-09T05:37:16.763Z,6.42
2019-02-09T05:38:16.697Z,6.64
2019-02-09T05:39:16.670Z,6.60
2019-02-09T05:40:16.564Z,6.61
2019-02-09T05:41:16.503Z,6.61
2019-02-09T05:42:16.422Z,6.67
2019-02-09T05:43:16.359Z,6.65
2019-02-09T05:44:16.309Z,6.55
2019-02-09T05:45:16.226Z,6.64
2019-02-09T05:46:16.159Z,6.68
2019-02-09T05:47:16.091Z,6.63
2019-02-09T05:48:16.027Z,6.68
2019-02-09T05:49:15.971Z,6.68
2019-02-09T05:50:15.898Z,6.71
2019-02-09T05:51:15.827Z,6.68
2019-02-09T05:52:15.767Z,6.78
2019-02-09T05:53:15.700Z,6.73
2019-02-09T05:54:15.633Z,6.67
2019-02-09T05:55:15.562Z,6.56
2019-02-09T05:56:15.495Z,6.64
2019-02-09T05:57:15.429Z,6.64
2019-02-09T05:58:15.366Z,6.75
2019-02-09T05:59:15.295Z,6.63
2019-02-09T06:00:15.232Z,6.64
2019-02-09T06:01:15.169Z,6.63
2019-02-09T06:02:15.109Z,6.60
2019-02-09T06:03:15.026Z,6.65
2019-02-09T06:04:14.965Z,6.67
2019-02-09T06:05:14.903Z,6.68
2019-02-09T06:06:14.832Z,6.53
2019-02-09T06:07:14.765Z,6.63
2019-02-09T06:08:14.702Z,6.63
2019-02-09T06:09:14.635Z,6.64
2019-02-09T06:10:14.563Z,6.68
2019-02-09T06:11:14.501Z,6.65
2019-02-09T06:12:14.435Z,6.64
2019-02-09T06:13:14.369Z,6.60
2019-02-09T06:14:14.303Z,6.60
2019-02-09T06:15:14.237Z,6.61
2019-02-09T06:16:14.174Z,6.64
2019-02-09T06:17:14.101Z,6.57
2019-02-09T06:18:14.037Z,6.63
2019-02-09T06:19:13.972Z,6.53
2019-02-09T06:20:13.906Z,6.63
2019-02-09T06:21:13.839Z,6.67
2019-02-09T06:22:13.771Z,6.64
2019-02-09T06:23:13.754Z,6.61
2019-02-09T06:24:13.636Z,6.60
2019-02-09T06:25:13.576Z,6.64
2019-02-09T06:26:13.508Z,6.64
2019-02-09T06:27:13.441Z,6.57
2019-02-09T06:28:13.379Z,6.65
2019-02-09T06:29:13.309Z,6.63
2019-02-09T06:30:13.242Z,6.68
2019-02-09T06:31:13.175Z,6.47
2019-02-09T06:32:13.114Z,6.64
2019-02-09T06:33:13.046Z,6.64
2019-02-09T06:34:12.983Z,6.63
2019-02-09T06:35:12.913Z,6.63
2019-02-09T06:36:12.851Z,6.60
2019-02-09T06:37:12.782Z,6.56
2019-02-09T06:38:12.710Z,6.53
2019-02-09T06:39:12.649Z,6.46
2019-02-09T06:40:12.583Z,6.52
2019-02-09T06:41:12.517Z,6.50
2019-02-09T06:42:12.451Z,6.47
2019-02-09T06:43:12.382Z,6.56
2019-02-09T06:44:12.330Z,6.49
2019-02-09T06:45:12.248Z,6.42
2019-02-09T06:46:12.184Z,6.43
2019-02-09T06:47:12.118Z,6.55
2019-02-09T06:48:12.052Z,6.56
2019-02-09T06:49:11.988Z,6.57
2019-02-09T06:50:11.925Z,6.57
2019-02-09T06:51:11.875Z,6.53
2019-02-09T06:52:11.785Z,6.57
2019-02-09T06:53:11.726Z,6.61
2019-02-09T06:54:11.653Z,6.53
2019-02-09T06:55:11.592Z,6.60
2019-02-09T06:56:11.524Z,6.64
2019-02-09T06:57:11.457Z,6.57
2019-02-09T06:58:11.397Z,6.55
2019-02-09T06:59:11.322Z,6.56
2019-02-09T07:00:11.258Z,6.60
2019-02-09T07:01:11.193Z,6.60
2019-02-09T07:02:11.126Z,6.60
2019-02-09T07:03:11.061Z,6.60
2019-02-09T07:04:10.996Z,6.60
2019-02-09T07:05:10.930Z,6.60
2019-02-09T07:06:10.857Z,6.64
2019-02-09T07:07:10.796Z,6.60
2019-02-09T07:08:10.731Z,6.67
2019-02-09T07:09:10.660Z,6.64
2019-02-09T07:10:10.593Z,6.65
2019-02-09T07:11:10.533Z,6.63
2019-02-09T07:12:10.466Z,6.63
2019-02-09T07:13:10.407Z,6.64
2019-02-09T07:14:10.333Z,6.64
2019-02-09T07:15:10.266Z,6.71
2019-02-09T07:16:10.201Z,6.67
2019-02-09T07:17:10.135Z,6.63
2019-02-09T07:18:10.069Z,6.68
2019-02-09T07:19:10.004Z,6.67
2019-02-09T07:20:09.961Z,6.63
2019-02-09T07:21:09.868Z,6.67
2019-02-09T07:22:09.830Z,6.73
2019-02-09T07:23:09.739Z,6.74
2019-02-09T07:24:09.671Z,6.83
2019-02-09T07:25:09.605Z,6.78
2019-02-09T07:26:09.544Z,6.81
2019-02-09T07:27:09.469Z,6.85
2019-02-09T07:28:09.407Z,6.83
2019-02-09T07:29:09.340Z,6.79
2019-02-09T07:30:09.275Z,6.75
2019-02-09T07:31:09.210Z,6.79
2019-02-09T07:32:09.145Z,6.75
2019-02-09T07:33:09.085Z,6.79
2019-02-09T07:34:09.005Z,6.82
2019-02-09T07:35:08.944Z,6.85
2019-02-09T07:36:08.885Z,6.81
2019-02-09T07:37:08.812Z,6.79
2019-02-09T07:38:08.748Z,6.82
2019-02-09T07:39:08.682Z,6.78
2019-02-09T07:40:08.625Z,6.79
2019-02-09T07:41:08.552Z,6.82
2019-02-09T07:42:08.480Z,6.75
2019-02-09T07:43:08.435Z,6.79
2019-02-09T07:44:08.350Z,6.85
2019-02-09T07:45:08.284Z,6.78
2019-02-09T07:46:08.218Z,6.75
2019-02-09T07:47:08.155Z,6.79
2019-02-09T07:48:08.082Z,6.73
2019-02-09T07:49:08.016Z,6.78
2019-02-09T07:50:07.967Z,6.83
2019-02-09T07:51:07.886Z,6.79
2019-02-09T07:52:07.819Z,6.89
2019-02-09T07:53:07.754Z,6.97
2019-02-09T07:54:07.688Z,7.03
2019-02-09T07:55:07.620Z,6.96
2019-02-09T07:56:07.557Z,7.11
2019-02-09T07:57:07.497Z,7.16
2019-02-09T07:58:07.425Z,7.26
2019-02-09T07:59:07.362Z,7.24
2019-02-09T08:00:07.300Z,7.25
2019-02-09T08:01:07.228Z,7.24
2019-02-09T08:02:07.158Z,7.31
2019-02-09T08:03:07.093Z,7.31
2019-02-09T08:04:07.049Z,7.40
2019-02-09T08:05:06.960Z,7.44
2019-02-09T08:06:06.895Z,7.50
2019-02-09T08:07:06.829Z,7.55
2019-02-09T08:08:06.767Z,7.58
2019-02-09T08:09:06.696Z,7.62
2019-02-09T08:10:06.645Z,7.76
2019-02-09T08:11:09.306Z,7.76
2019-02-09T08:12:06.510Z,7.76
2019-02-09T08:13:06.435Z,7.74
2019-02-09T08:14:06.368Z,7.66
2019-02-09T08:15:06.302Z,7.68
2019-02-09T08:16:06.241Z,7.60
2019-02-09T08:17:06.182Z,7.60
2019-02-09T08:18:06.107Z,7.55
2019-02-09T08:19:06.043Z,7.52
2019-02-09T08:20:05.973Z,7.61
2019-02-09T08:21:05.908Z,7.57
2019-02-09T08:22:05.889Z,7.61
2019-02-09T08:23:05.780Z,7.62
2019-02-09T08:24:07.313Z,7.74
2019-02-09T08:25:05.645Z,7.71
2019-02-09T08:26:05.574Z,7.68
2019-02-09T08:27:05.512Z,7.76
2019-02-09T08:28:05.447Z,7.78
2019-02-09T08:29:05.381Z,7.76
2019-02-09T08:30:05.315Z,7.73
2019-02-09T08:31:05.255Z,7.78
2019-02-09T08:32:12.295Z,7.77
2019-02-09T08:33:05.116Z,7.86
2019-02-09T08:34:05.052Z,7.78
2019-02-09T08:35:04.984Z,7.77
2019-02-09T08:36:04.921Z,7.88
2019-02-09T08:37:04.857Z,7.91
2019-02-09T08:38:04.791Z,7.95
2019-02-09T08:39:04.732Z,8.05
2019-02-09T08:40:04.657Z,8.06
2019-02-09T08:41:04.604Z,8.09
2019-02-09T08:42:04.538Z,8.14
2019-02-09T08:43:04.462Z,8.13
2019-02-09T08:44:04.399Z,8.10
2019-02-09T08:45:04.336Z,8.19
2019-02-09T08:46:04.269Z,8.21
2019-02-09T08:47:04.207Z,8.29
2019-02-09T08:48:04.142Z,8.28
2019-02-09T08:49:04.084Z,8.37
2019-02-09T08:50:04.004Z,8.35
2019-02-09T08:51:03.944Z,8.38
2019-02-09T08:52:03.876Z,8.46
2019-02-09T08:53:03.811Z,8.52
2019-02-09T08:54:03.741Z,8.62
2019-02-09T08:55:03.680Z,8.59
2019-02-09T08:56:03.625Z,8.62
2019-02-09T08:57:03.557Z,8.65
2019-02-09T08:58:03.502Z,8.71
2019-02-09T08:59:03.425Z,8.72
2019-02-09T09:00:03.352Z,8.68
2019-02-09T09:01:03.297Z,8.78
2019-02-09T09:02:03.222Z,8.92
2019-02-09T09:03:03.156Z,8.88
2019-02-09T09:04:03.098Z,8.98
2019-02-09T09:05:09.524Z,8.90
2019-02-09T09:06:02.964Z,8.99
2019-02-09T09:07:02.894Z,9.09
2019-02-09T09:08:02.839Z,9.22
2019-02-09T09:09:02.773Z,9.27
2019-02-09T09:10:02.708Z,9.29
2019-02-09T09:11:02.641Z,9.26
2019-02-09T09:12:02.574Z,9.27
2019-02-09T09:13:02.534Z,9.33
2019-02-09T09:14:02.446Z,9.19
2019-02-09T09:15:02.384Z,9.23
2019-02-09T09:16:02.319Z,9.29
2019-02-09T09:17:02.246Z,9.41
2019-02-09T09:18:02.185Z,9.40
2019-02-09T09:19:02.120Z,9.37
2019-02-09T09:20:02.058Z,9.33
2019-02-09T09:21:01.996Z,9.24
2019-02-09T09:22:01.925Z,9.30
2019-02-09T09:23:01.865Z,9.29
2019-02-09T09:24:01.799Z,9.30
2019-02-09T09:25:01.732Z,9.32
2019-02-09T09:26:01.673Z,9.34
2019-02-09T09:27:01.601Z,9.30
2019-02-09T09:28:01.540Z,9.32
2019-02-09T09:29:01.479Z,9.33
2019-02-09T09:30:01.410Z,9.29
2019-02-09T09:31:01.350Z,9.32
2019-02-09T09:32:01.277Z,9.34
2019-02-09T09:33:01.215Z,9.33
2019-02-09T09:34:01.151Z,9.32
2019-02-09T09:35:01.086Z,9.34
2019-02-09T09:36:01.035Z,9.34
2019-02-09T09:37:00.952Z,9.36
2019-02-09T09:38:00.893Z,9.47
2019-02-09T09:39:00.843Z,9.34
2019-02-09T09:40:00.829Z,9.48
2019-02-09T09:41:00.695Z,9.41
2019-02-09T09:42:00.631Z,9.48
2019-02-09T09:43:00.577Z,9.37
2019-02-09T09:44:00.510Z,9.40
2019-02-09T09:45:00.442Z,9.37
2019-02-09T09:46:00.369Z,9.36
2019-02-09T09:47:00.305Z,9.34
2019-02-09T09:48:00.245Z,9.41
2019-02-09T09:49:00.192Z,9.45
2019-02-09T09:50:00.255Z,9.36
2019-02-09T09:51:00.050Z,9.44
2019-02-09T09:51:59.984Z,9.42
2019-02-09T09:52:59.922Z,9.42
2019-02-09T09:53:59.867Z,9.34
2019-02-09T09:54:59.792Z,9.37
2019-02-09T09:55:59.730Z,9.40
2019-02-09T09:56:59.661Z,9.44
2019-02-09T09:57:59.608Z,9.34
2019-02-09T09:58:59.547Z,9.30
2019-02-09T09:59:59.475Z,9.36
2019-02-09T10:00:59.408Z,9.23
2019-02-09T10:01:59.348Z,9.18
2019-02-09T10:02:59.286Z,9.27
2019-02-09T10:03:59.213Z,9.30
2019-02-09T10:04:59.148Z,9.29
2019-02-09T10:05:59.083Z,9.24
2019-02-09T10:06:59.026Z,9.37
2019-02-09T10:07:58.954Z,9.37
2019-02-09T10:08:58.894Z,9.48
2019-02-09T10:09:58.820Z,9.48
2019-02-09T10:10:58.760Z,9.45
2019-02-09T10:11:58.710Z,9.41
2019-02-09T10:12:58.642Z,9.48
2019-02-09T10:13:58.565Z,9.52
2019-02-09T10:14:58.500Z,9.41
2019-02-09T10:15:58.443Z,9.42
2019-02-09T10:16:58.374Z,9.40
2019-02-09T10:17:58.308Z,9.42
2019-02-09T10:18:58.259Z,9.54
2019-02-09T10:19:58.179Z,9.41
2019-02-09T10:20:58.113Z,9.47
2019-02-09T10:21:58.049Z,9.45
2019-02-09T10:22:57.986Z,9.57
2019-02-09T10:23:57.920Z,9.69
2019-02-09T10:24:57.857Z,9.65
2019-02-09T10:25:57.791Z,9.59
2019-02-09T10:26:57.731Z,9.62
2019-02-09T10:27:57.665Z,9.52
2019-02-09T10:28:57.596Z,9.60
2019-02-09T10:29:57.528Z,9.54
2019-02-09T10:30:57.467Z,9.57
2019-02-09T10:31:57.405Z,9.67
2019-02-09T10:32:57.338Z,9.73
2019-02-09T10:33:57.272Z,9.70
2019-02-09T10:34:57.209Z,9.75
2019-02-09T10:35:57.144Z,9.75
2019-02-09T10:36:57.084Z,9.77
2019-02-09T10:37:57.023Z,9.77
2019-02-09T10:38:56.956Z,9.77
2019-02-09T10:39:56.885Z,9.78
2019-02-09T10:40:56.820Z,9.75
2019-02-09T10:41:56.756Z,9.65
2019-02-09T10:42:56.709Z,9.55
2019-02-09T10:43:56.635Z,9.55
2019-02-09T10:44:56.566Z,9.69
2019-02-09T10:45:56.500Z,9.72
2019-02-09T10:46:56.438Z,9.63
2019-02-09T10:47:56.369Z,9.78
2019-02-09T10:48:56.320Z,9.78
2019-02-09T10:49:56.240Z,9.77
2019-02-09T10:50:56.177Z,9.85
2019-02-09T10:51:56.111Z,9.94
2019-02-09T10:52:56.046Z,9.99
2019-02-09T10:53:55.983Z,9.87
2019-02-09T10:54:55.921Z,9.98
2019-02-09T10:55:55.857Z,10.05
2019-02-09T10:56:55.793Z,10.09
2019-02-09T10:57:55.727Z,10.12
2019-02-09T10:58:55.663Z,10.10
2019-02-09T10:59:55.606Z,10.06
2019-02-09T11:00:55.548Z,10.12
2019-02-09T11:01:55.480Z,10.23
2019-02-09T11:02:55.933Z,10.08
2019-02-09T11:03:55.340Z,10.16
2019-02-09T11:04:55.295Z,10.12
2019-02-09T11:05:55.217Z,10.12
2019-02-09T11:06:55.149Z,10.21
2019-02-09T11:07:55.084Z,10.21
2019-02-09T11:08:55.021Z,10.31
2019-02-09T11:09:54.963Z,10.39
2019-02-09T11:10:54.896Z,10.42
2019-02-09T11:11:54.831Z,10.43
2019-02-09T11:12:54.761Z,10.41
2019-02-09T11:13:54.713Z,10.55
2019-02-09T11:14:54.640Z,10.67
2019-02-09T11:15:54.569Z,10.65
2019-02-09T11:16:54.510Z,10.62
2019-02-09T11:17:54.443Z,10.75
2019-02-09T11:18:54.389Z,10.76
2019-02-09T11:19:54.319Z,10.75
2019-02-09T11:20:54.253Z,10.68
2019-02-09T11:21:54.190Z,10.70
2019-02-09T11:22:54.125Z,10.64
2019-02-09T11:23:54.063Z,10.64
2019-02-09T11:24:54.001Z,10.55
2019-02-09T11:25:53.933Z,10.46
2019-02-09T11:26:53.876Z,10.43
2019-02-09T11:27:53.807Z,10.42
2019-02-09T11:28:53.741Z,10.42
2019-02-09T11:29:53.682Z,10.38
2019-02-09T11:30:53.619Z,10.39
2019-02-09T11:31:53.562Z,10.49
2019-02-09T11:33:01.604Z,10.45
2019-02-09T11:33:53.424Z,10.52
2019-02-09T11:34:53.363Z,10.60
2019-02-09T11:35:53.296Z,10.64
2019-02-09T11:36:53.235Z,10.65
2019-02-09T11:37:53.168Z,10.64
2019-02-09T11:38:53.111Z,10.57
2019-02-09T11:39:53.045Z,10.54
2019-02-09T11:40:52.986Z,10.52
2019-02-09T11:41:52.916Z,10.57
2019-02-09T11:42:52.855Z,10.57
2019-02-09T11:43:52.802Z,10.54
2019-02-09T11:44:52.723Z,10.61
2019-02-09T11:45:52.661Z,10.60
2019-02-09T11:46:52.597Z,10.62
2019-02-09T11:47:52.537Z,10.67
2019-02-09T11:48:52.475Z,10.65
2019-02-09T11:49:52.404Z,10.73
2019-02-09T11:50:52.343Z,10.70
2019-02-09T11:51:52.281Z,10.79
2019-02-09T11:52:52.219Z,10.87
2019-02-09T11:53:52.160Z,10.86
2019-02-09T11:54:52.097Z,10.86
2019-02-09T11:55:52.025Z,10.83
2019-02-09T11:56:51.973Z,11.04
2019-02-09T11:57:51.895Z,11.09
2019-02-09T11:58:51.834Z,11.08
2019-02-09T11:59:51.780Z,11.00
2019-02-09T12:00:51.706Z,11.09
2019-02-09T12:01:51.998Z,10.98
2019-02-09T12:02:51.579Z,11.09
2019-02-09T12:03:51.520Z,11.05
2019-02-09T12:04:51.455Z,11.04
2019-02-09T12:05:51.394Z,11.00
2019-02-09T12:06:51.326Z,11.09
2019-02-09T12:07:51.267Z,11.04
2019-02-09T12:08:51.202Z,11.03
2019-02-09T12:09:51.135Z,11.04
2019-02-09T12:10:51.082Z,10.98
2019-02-09T12:11:51.020Z,10.72
2019-02-09T12:12:50.949Z,10.65
2019-02-09T12:13:55.396Z,10.68
2019-02-09T12:14:50.821Z,10.72
2019-02-09T12:15:50.766Z,10.64
2019-02-09T12:16:50.695Z,10.70
2019-02-09T12:17:50.633Z,10.72
2019-02-09T12:18:50.568Z,10.78
2019-02-09T12:19:50.505Z,10.82
2019-02-09T12:20:50.439Z,10.86
2019-02-09T12:21:50.377Z,10.86
2019-02-09T12:22:50.317Z,10.83
2019-02-09T12:23:50.258Z,10.86
2019-02-09T12:24:50.189Z,10.95
2019-02-09T12:25:50.123Z,10.95
2019-02-09T12:26:50.068Z,11.03
2019-02-09T12:27:50.002Z,10.97
2019-02-09T12:28:49.935Z,11.04
2019-02-09T12:29:49.867Z,11.03
2019-02-09T12:30:49.822Z,11.05
2019-02-09T12:31:49.757Z,11.03
2019-02-09T12:32:49.678Z,11.01
2019-02-09T12:33:49.617Z,11.05
2019-02-09T12:34:49.569Z,11.08
2019-02-09T12:35:49.490Z,11.15
2019-02-09T12:36:49.427Z,11.18
2019-02-09T12:37:49.363Z,11.15
2019-02-09T12:38:49.299Z,11.15
2019-02-09T12:39:49.247Z,11.16
2019-02-09T12:40:49.174Z,11.25
2019-02-09T12:41:49.114Z,11.28
2019-02-09T12:42:49.058Z,11.36
2019-02-09T12:43:48.984Z,11.31
2019-02-09T12:44:48.923Z,11.40
2019-02-09T12:45:48.856Z,11.46
2019-02-09T12:46:48.794Z,11.46
2019-02-09T12:47:48.734Z,11.55
2019-02-09T12:48:48.665Z,11.49
2019-02-09T12:49:48.605Z,11.46
2019-02-09T12:50:48.558Z,11.49
2019-02-09T12:51:48.477Z,11.49
2019-02-09T12:52:48.416Z,11.51
2019-02-09T12:53:48.350Z,11.41
2019-02-09T12:54:48.290Z,11.46
2019-02-09T12:55:48.227Z,11.40
2019-02-09T12:56:48.193Z,11.28
2019-02-09T12:57:48.099Z,11.15
2019-02-09T12:58:48.044Z,11.20
2019-02-09T12:59:47.973Z,11.13
2019-02-09T13:00:47.920Z,11.18
2019-02-09T13:01:47.851Z,11.19
2019-02-09T13:02:47.787Z,11.13
2019-02-09T13:03:47.722Z,11.12
2019-02-09T13:04:47.660Z,11.15
2019-02-09T13:05:47.595Z,11.20
2019-02-09T13:06:47.547Z,11.27
2019-02-09T13:07:47.466Z,11.16
2019-02-09T13:08:47.410Z,11.23
2019-02-09T13:09:47.341Z,11.20
2019-02-09T13:10:47.279Z,11.16
2019-02-09T13:11:47.215Z,11.25
2019-02-09T13:12:47.180Z,11.27